• Join FlightAware (Why Join?)
  • Login
  • US Flag 
07:12AM EDT


 

Airport Tracker/Info


-or-


 

Live Flight TrackerFlight Track Log ✈ CES5141 ✈ 19-May-2013 ✈ ZBAA / PEK - ZBOW / BAV

Flight Track Log - Related Links

Times and Time Zones

All times are in EDT time to prevent confusion due to time zone crossing. See the CES5141 flight status page for this flight to view local times or setup timezone preferences in your user account.

Time Position Orientation Groundspeed Altitude Reporting Facility
EDT Latitude Longitude Course Direction KTS MPH feet Rate Location/Type
09:22AM 40.2059 115.2747 278° West  Level Estimated
09:23AM 40.2150 115.1738 277° West  Level Estimated
09:24AM 40.2240 115.0728 277° West  Level Estimated
09:25AM 40.2329 114.9718 277° West  Level Estimated
09:26AM 40.2417 114.8708 277° West  Level Estimated
09:27AM 40.2504 114.7697 276° West  Level Estimated
09:28AM 40.2590 114.6686 276° West  Level Estimated
09:29AM 40.2676 114.5675 276° West  Level Estimated
09:30AM 40.2760 114.4664 276° West  Level Estimated
09:31AM 40.2844 114.3652 276° West  Level Estimated
09:32AM 40.2927 114.2640 276° West  Level Estimated
09:33AM 40.3008 114.1628 276° West  Level Estimated
09:34AM 40.3089 114.0616 276° West  Level Estimated
09:35AM 40.3170 113.9603 276° West  Level Estimated
09:36AM 40.3249 113.8590 276° West  Level Estimated
09:37AM 40.3327 113.7577 276° West  Level Estimated
09:38AM 40.3405 113.6564 276° West  Level Estimated
09:39AM 40.3481 113.5551 276° West  Level Estimated
09:40AM 40.3557 113.4537 276° West  Level Estimated
09:41AM 40.3632 113.3523 276° West  Level Estimated
09:42AM 40.3706 113.2508 275° West  Level Estimated
09:43AM 40.3779 113.1494 275° West  Level Estimated
09:44AM 40.3851 113.0480 275° West  Level Estimated
09:45AM 40.3922 112.9465 275° West  Level Estimated
09:46AM 40.3992 112.8449 275° West  Level Estimated
09:47AM 40.4062 112.7434 275° West  Level Estimated
09:48AM 40.4131 112.6419 275° West  Level Estimated
09:49AM 40.4198 112.5403 275° West  Level Estimated
09:50AM 40.4265 112.4387 275° West  Level Estimated
09:51AM 40.4331 112.3371 275° West  Level Estimated
09:52AM 40.4396 112.2355 275° West  Level Estimated
09:53AM 40.4460 112.1338 275° West  Level Estimated
09:54AM 40.4523 112.0322 275° West  Level Estimated
09:55AM 40.4586 111.9305 275° West  Level Estimated
09:56AM 40.4647 111.8288 275° West  Level Estimated
09:57AM 40.4727 111.6938 275° West  Level Estimated
09:58AM 40.4806 111.5588 274° West  Level Estimated
09:59AM 40.4883 111.4238 274° West  Level Estimated
10:00AM 40.4958 111.2888 274° West  Level Estimated
10:01AM 40.5032 111.1537 274° West  Level Estimated
10:02AM 40.5105 111.0186 274° West  Level Estimated
10:03AM 40.5175 110.8835 274° West  Level Estimated
10:04AM 40.5244 110.7483 274° West  Level Estimated
10:05AM 40.5312 110.6131 274° West  Level Estimated
10:06AM 40.5378 110.4779 274° West  Level Estimated
10:07AM 40.5443 110.3427 274° West  Level Estimated
10:08AM 40.5505 110.2074 274° West  Level Estimated
10:09AM 40.5567 110.0721 273° West  Level Estimated
10:10AM 40.5600 109.9969 273° West  Level Estimated
10:11AM 40.5600 109.9969 108° East  Level Estimated
10:12AM 40.5600 109.9969 108° East  Level Estimated
10:13AM 40.5600 109.9969 108° East  Level Estimated
10:14AM 40.5600 109.9969 108° East  Level Estimated